createdAt,value
2018-02-25T00:00:03.970Z,-7.61
2018-02-25T00:00:08.113Z,-7.62
2018-02-25T00:00:12.357Z,-7.62
2018-02-25T00:00:16.388Z,-7.62
2018-02-25T00:00:20.526Z,-7.62
2018-02-25T00:00:24.647Z,-7.63
2018-02-25T00:00:28.782Z,-7.62
2018-02-25T00:00:32.818Z,-7.64
2018-02-25T00:00:37.064Z,-7.63
2018-02-25T00:00:41.197Z,-7.63
2018-02-25T00:00:45.327Z,-7.63
2018-02-25T00:00:49.258Z,-7.63
2018-02-25T00:00:53.603Z,-7.63
2018-02-25T00:00:57.819Z,-7.64
2018-02-25T00:01:01.931Z,-7.63
2018-02-25T00:01:06.170Z,-7.63
2018-02-25T00:01:10.430Z,-7.65
2018-02-25T00:01:14.579Z,-7.64
2018-02-25T00:01:18.839Z,-7.64
2018-02-25T00:01:23.188Z,-7.65
2018-02-25T00:01:27.420Z,-7.65
2018-02-25T00:01:31.542Z,-7.65
2018-02-25T00:01:35.454Z,-7.65
2018-02-25T00:01:39.680Z,-7.64
2018-02-25T00:01:43.927Z,-7.66
2018-02-25T00:01:48.067Z,-7.65
2018-02-25T00:01:52.211Z,-7.65
2018-02-25T00:01:56.352Z,-7.65
2018-02-25T00:02:00.387Z,-7.66
2018-02-25T00:02:04.520Z,-7.65
2018-02-25T00:02:08.862Z,-7.67
2018-02-25T00:02:13.129Z,-7.67
2018-02-25T00:02:17.481Z,-7.66
2018-02-25T00:02:21.829Z,-7.67
2018-02-25T00:02:26.029Z,-7.67
2018-02-25T00:02:30.374Z,-7.67
2018-02-25T00:02:34.598Z,-7.68
2018-02-25T00:02:38.745Z,-7.67
2018-02-25T00:02:42.883Z,-7.67
2018-02-25T00:02:46.688Z,-7.68
2018-02-25T00:02:51.025Z,-7.68
2018-02-25T00:02:55.261Z,-7.68
2018-02-25T00:02:59.501Z,-7.68
2018-02-25T00:03:04.008Z,-7.69
2018-02-25T00:03:08.140Z,-7.68
2018-02-25T00:03:12.276Z,-7.68
2018-02-25T00:03:16.528Z,-7.7
2018-02-25T00:03:20.704Z,-7.69
2018-02-25T00:03:24.940Z,-7.69
2018-02-25T00:03:29.174Z,-7.71
2018-02-25T00:03:33.313Z,-7.7
2018-02-25T00:03:37.554Z,-7.69
2018-02-25T00:03:41.692Z,-7.69
2018-02-25T00:03:45.495Z,-7.7
2018-02-25T00:03:49.633Z,-7.7
2018-02-25T00:03:53.638Z,-7.71
2018-02-25T00:03:57.871Z,-7.7
2018-02-25T00:04:02.105Z,-7.71
2018-02-25T00:04:06.451Z,-7.7
2018-02-25T00:04:10.601Z,-7.71
2018-02-25T00:04:14.942Z,-7.71
2018-02-25T00:04:19.289Z,-7.71
2018-02-25T00:04:23.628Z,-7.71
2018-02-25T00:04:27.780Z,-7.71
2018-02-25T00:04:31.910Z,-7.72
2018-02-25T00:04:36.048Z,-7.72
2018-02-25T00:04:40.398Z,-7.72
2018-02-25T00:04:44.432Z,-7.72
2018-02-25T00:04:48.451Z,-7.72
2018-02-25T00:04:52.687Z,-7.72
2018-02-25T00:04:56.927Z,-7.73
2018-02-25T00:05:01.281Z,-7.73
2018-02-25T00:05:05.694Z,-7.73
2018-02-25T00:05:09.821Z,-7.73
2018-02-25T00:05:13.846Z,-7.72
2018-02-25T00:05:17.979Z,-7.73
2018-02-25T00:05:22.122Z,-7.74
2018-02-25T00:05:26.476Z,-7.74
2018-02-25T00:05:30.708Z,-7.74
2018-02-25T00:05:34.940Z,-7.73
2018-02-25T00:05:39.292Z,-7.74
2018-02-25T00:05:43.428Z,-7.75
2018-02-25T00:05:47.451Z,-7.75
2018-02-25T00:05:51.695Z,-7.75
2018-02-25T00:05:55.937Z,-7.75
2018-02-25T00:06:00.186Z,-7.75
2018-02-25T00:06:04.119Z,-7.75
2018-02-25T00:06:08.369Z,-7.75
2018-02-25T00:06:12.723Z,-7.76
2018-02-25T00:06:16.978Z,-7.76
2018-02-25T00:06:21.239Z,-7.76
2018-02-25T00:06:25.585Z,-7.76
2018-02-25T00:06:29.701Z,-7.76
2018-02-25T00:06:33.939Z,-7.77
2018-02-25T00:06:38.287Z,-7.76
2018-02-25T00:06:42.643Z,-7.77
2018-02-25T00:06:46.764Z,-7.77
2018-02-25T00:06:51.120Z,-7.78
2018-02-25T00:06:55.480Z,-7.76
2018-02-25T00:06:59.512Z,-7.78
2018-02-25T00:07:03.852Z,-7.77
2018-02-25T00:07:07.982Z,-7.78
2018-02-25T00:07:12.241Z,-7.78
2018-02-25T00:07:16.378Z,-7.78
2018-02-25T00:07:20.728Z,-7.78
2018-02-25T00:07:24.974Z,-7.78
2018-02-25T00:07:29.101Z,-7.79
2018-02-25T00:07:33.357Z,-7.79
2018-02-25T00:07:37.718Z,-7.79
2018-02-25T00:07:41.961Z,-7.8
2018-02-25T00:07:46.104Z,-7.8
2018-02-25T00:07:50.339Z,-7.8
2018-02-25T00:07:54.677Z,-7.79
2018-02-25T00:07:59.040Z,-7.79
2018-02-25T00:08:03.415Z,-7.8
2018-02-25T00:08:07.645Z,-7.8
2018-02-25T00:08:11.883Z,-7.8
2018-02-25T00:08:16.025Z,-7.8
2018-02-25T00:08:20.376Z,-7.81
2018-02-25T00:08:24.513Z,-7.81
2018-02-25T00:08:28.662Z,-7.8
2018-02-25T00:08:33.021Z,-7.8
2018-02-25T00:08:37.576Z,-7.81
2018-02-25T00:08:41.918Z,-7.82
2018-02-25T00:08:46.140Z,-7.82
2018-02-25T00:08:50.514Z,-7.81
2018-02-25T00:08:54.652Z,-7.82
2018-02-25T00:08:58.796Z,-7.82
2018-02-25T00:09:02.927Z,-7.83
2018-02-25T00:09:07.067Z,-7.82
2018-02-25T00:09:11.097Z,-7.83
2018-02-25T00:09:15.241Z,-7.82
2018-02-25T00:09:19.484Z,-7.81
2018-02-25T00:09:23.723Z,-7.81
2018-02-25T00:09:27.641Z,-7.83
2018-02-25T00:09:31.985Z,-7.82
2018-02-25T00:09:36.336Z,-7.8
2018-02-25T00:09:40.673Z,-7.83
2018-02-25T00:09:44.905Z,-7.82
2018-02-25T00:09:49.045Z,-7.82
2018-02-25T00:09:53.388Z,-7.82
2018-02-25T00:09:57.631Z,-7.83
2018-02-25T00:10:01.965Z,-7.82
2018-02-25T00:10:06.202Z,-7.83
2018-02-25T00:10:10.436Z,-7.82
2018-02-25T00:10:14.673Z,-7.83
2018-02-25T00:10:18.702Z,-7.83
2018-02-25T00:10:22.843Z,-7.83
2018-02-25T00:10:27.186Z,-7.82
2018-02-25T00:10:31.329Z,-7.82
2018-02-25T00:10:35.614Z,-7.82
2018-02-25T00:10:39.962Z,-7.82
2018-02-25T00:10:44.103Z,-7.82
2018-02-25T00:10:48.350Z,-7.83
2018-02-25T00:10:52.469Z,-7.82
2018-02-25T00:10:56.707Z,-7.84
2018-02-25T00:11:00.965Z,-7.84
2018-02-25T00:11:05.567Z,-7.82
2018-02-25T00:11:09.632Z,-7.83
2018-02-25T00:11:13.876Z,-7.83
2018-02-25T00:11:18.210Z,-7.83
2018-02-25T00:11:22.445Z,-7.83
2018-02-25T00:11:26.602Z,-7.83
2018-02-25T00:11:30.517Z,-7.83
2018-02-25T00:11:34.637Z,-7.83
2018-02-25T00:11:38.868Z,-7.84
2018-02-25T00:11:43.002Z,-7.83
2018-02-25T00:11:47.243Z,-7.83
2018-02-25T00:11:51.586Z,-7.83
2018-02-25T00:11:55.717Z,-7.82
2018-02-25T00:12:00.055Z,-7.82
2018-02-25T00:12:04.190Z,-7.84
2018-02-25T00:12:08.322Z,-7.82
2018-02-25T00:12:12.584Z,-7.82
2018-02-25T00:12:16.828Z,-7.82
2018-02-25T00:12:20.654Z,-7.82
2018-02-25T00:12:24.674Z,-7.83
2018-02-25T00:12:29.025Z,-7.82
2018-02-25T00:12:33.259Z,-7.82
2018-02-25T00:12:37.481Z,-7.83
2018-02-25T00:12:41.608Z,-7.82
2018-02-25T00:12:45.659Z,-7.83
2018-02-25T00:12:49.691Z,-7.82
2018-02-25T00:12:53.946Z,-7.82
2018-02-25T00:12:57.979Z,-7.81
2018-02-25T00:13:02.315Z,-7.81
2018-02-25T00:13:06.661Z,-7.81
2018-02-25T00:13:10.901Z,-7.82
2018-02-25T00:13:14.925Z,-7.81
2018-02-25T00:13:19.188Z,-7.82
2018-02-25T00:13:23.315Z,-7.81
2018-02-25T00:13:27.685Z,-7.82
2018-02-25T00:13:31.719Z,-7.82
2018-02-25T00:13:35.843Z,-7.81
2018-02-25T00:13:40.112Z,-7.81
2018-02-25T00:13:43.926Z,-7.82
2018-02-25T00:13:48.180Z,-7.81
2018-02-25T00:13:52.324Z,-7.81
2018-02-25T00:13:56.464Z,-7.8
2018-02-25T00:14:00.689Z,-7.81
2018-02-25T00:14:04.920Z,-7.82
2018-02-25T00:14:09.159Z,-7.8
2018-02-25T00:14:13.196Z,-7.8
2018-02-25T00:14:17.432Z,-7.81
2018-02-25T00:14:21.554Z,-7.8
2018-02-25T00:14:25.581Z,-7.81
2018-02-25T00:14:29.720Z,-7.81
2018-02-25T00:14:33.952Z,-7.8
2018-02-25T00:14:37.972Z,-7.8
2018-02-25T00:14:42.209Z,-7.81
2018-02-25T00:14:46.452Z,-7.8
2018-02-25T00:14:50.589Z,-7.8
2018-02-25T00:14:54.721Z,-7.81
2018-02-25T00:14:58.842Z,-7.81
2018-02-25T00:15:03.223Z,-7.81
2018-02-25T00:15:07.458Z,-7.8
2018-02-25T00:15:11.580Z,-7.8
2018-02-25T00:15:15.886Z,-7.81
2018-02-25T00:15:20.020Z,-7.8
2018-02-25T00:15:24.156Z,-7.8
2018-02-25T00:15:28.297Z,-7.8
2018-02-25T00:15:32.538Z,-7.8
2018-02-25T00:15:36.788Z,-7.79
2018-02-25T00:15:41.020Z,-7.8
2018-02-25T00:15:45.370Z,-7.8
2018-02-25T00:15:49.494Z,-7.81
2018-02-25T00:15:53.739Z,-7.8
2018-02-25T00:15:57.874Z,-7.81
2018-02-25T00:16:02.224Z,-7.8
2018-02-25T00:16:06.405Z,-7.81
2018-02-25T00:16:10.640Z,-7.81
2018-02-25T00:16:14.676Z,-7.8
2018-02-25T00:16:18.811Z,-7.82
2018-02-25T00:16:22.946Z,-7.81
2018-02-25T00:16:27.177Z,-7.8
2018-02-25T00:16:31.522Z,-7.82
2018-02-25T00:16:35.538Z,-7.81
2018-02-25T00:16:39.878Z,-7.8
2018-02-25T00:16:44.216Z,-7.82
2018-02-25T00:16:48.237Z,-7.8
2018-02-25T00:16:52.477Z,-7.81
2018-02-25T00:16:56.815Z,-7.81
2018-02-25T00:17:01.035Z,-7.82
2018-02-25T00:17:05.480Z,-7.82
2018-02-25T00:17:09.757Z,-7.82
2018-02-25T00:17:13.943Z,-7.81
2018-02-25T00:17:18.299Z,-7.81
2018-02-25T00:17:22.449Z,-7.82
2018-02-25T00:17:26.571Z,-7.83
2018-02-25T00:17:30.816Z,-7.82
2018-02-25T00:17:34.839Z,-7.82
2018-02-25T00:17:38.965Z,-7.82
2018-02-25T00:17:43.110Z,-7.83
2018-02-25T00:17:47.353Z,-7.83
2018-02-25T00:17:51.582Z,-7.83
2018-02-25T00:17:55.814Z,-7.83
2018-02-25T00:18:00.049Z,-7.84
2018-02-25T00:18:04.291Z,-7.83
2018-02-25T00:18:08.523Z,-7.83
2018-02-25T00:18:12.754Z,-7.82
2018-02-25T00:18:17.011Z,-7.83
2018-02-25T00:18:21.251Z,-7.83
2018-02-25T00:18:25.389Z,-7.83
2018-02-25T00:18:29.626Z,-7.83
2018-02-25T00:18:33.951Z,-7.84
2018-02-25T00:18:38.420Z,-7.84
2018-02-25T00:18:42.817Z,-7.84
2018-02-25T00:18:47.044Z,-7.84
2018-02-25T00:18:51.193Z,-7.85
2018-02-25T00:18:55.329Z,-7.83
2018-02-25T00:18:59.572Z,-7.85
2018-02-25T00:19:03.931Z,-7.85
2018-02-25T00:19:08.190Z,-7.84
2018-02-25T00:19:12.334Z,-7.85
2018-02-25T00:19:16.569Z,-7.86
2018-02-25T00:19:20.804Z,-7.85
2018-02-25T00:19:25.043Z,-7.85
2018-02-25T00:19:28.948Z,-7.85
2018-02-25T00:19:33.105Z,-7.85
2018-02-25T00:19:37.460Z,-7.86
2018-02-25T00:19:41.685Z,-7.86
2018-02-25T00:19:45.700Z,-7.86
2018-02-25T00:19:49.824Z,-7.85
2018-02-25T00:19:54.077Z,-7.86
2018-02-25T00:19:58.223Z,-7.86
2018-02-25T00:20:02.576Z,-7.86
2018-02-25T00:20:06.829Z,-7.86
2018-02-25T00:20:11.051Z,-7.86
2018-02-25T00:20:15.187Z,-7.86
2018-02-25T00:20:19.339Z,-7.85
2018-02-25T00:20:23.590Z,-7.86
2018-02-25T00:20:27.946Z,-7.86
2018-02-25T00:20:32.204Z,-7.86
2018-02-25T00:20:36.134Z,-7.87
2018-02-25T00:20:40.370Z,-7.87
2018-02-25T00:20:44.607Z,-7.86
2018-02-25T00:20:48.842Z,-7.87
2018-02-25T00:20:52.861Z,-7.87
2018-02-25T00:20:57.110Z,-7.87
2018-02-25T00:21:01.234Z,-7.87
2018-02-25T00:21:05.401Z,-7.87
2018-02-25T00:21:09.647Z,-7.87
2018-02-25T00:21:13.669Z,-7.87
2018-02-25T00:21:17.905Z,-7.87
2018-02-25T00:21:22.164Z,-7.88
2018-02-25T00:21:26.510Z,-7.87
2018-02-25T00:21:30.752Z,-7.88
2018-02-25T00:21:35.109Z,-7.89
2018-02-25T00:21:39.356Z,-7.88
2018-02-25T00:21:43.481Z,-7.88
2018-02-25T00:21:47.814Z,-7.88
2018-02-25T00:21:51.936Z,-7.88
2018-02-25T00:21:56.189Z,-7.88
2018-02-25T00:22:00.328Z,-7.88
2018-02-25T00:22:04.802Z,-7.89
2018-02-25T00:22:08.931Z,-7.89
2018-02-25T00:22:13.265Z,-7.9
2018-02-25T00:22:17.611Z,-7.89
2018-02-25T00:22:21.747Z,-7.89
2018-02-25T00:22:25.998Z,-7.9
2018-02-25T00:22:30.348Z,-7.9
2018-02-25T00:22:34.606Z,-7.9
2018-02-25T00:22:38.839Z,-7.9
2018-02-25T00:22:42.971Z,-7.9
2018-02-25T00:22:47.004Z,-7.9
2018-02-25T00:22:51.251Z,-7.9
2018-02-25T00:22:55.609Z,-7.91
2018-02-25T00:22:59.841Z,-7.9
2018-02-25T00:23:04.195Z,-7.9
2018-02-25T00:23:08.318Z,-7.9
2018-02-25T00:23:12.563Z,-7.92
2018-02-25T00:23:16.586Z,-7.91
2018-02-25T00:23:20.938Z,-7.91
2018-02-25T00:23:25.186Z,-7.91
2018-02-25T00:23:29.425Z,-7.91
2018-02-25T00:23:33.562Z,-7.9
2018-02-25T00:23:37.585Z,-7.91
2018-02-25T00:23:41.701Z,-7.91
2018-02-25T00:23:45.718Z,-7.91
2018-02-25T00:23:49.735Z,-7.92
2018-02-25T00:23:53.861Z,-7.91
2018-02-25T00:23:57.994Z,-7.91
2018-02-25T00:24:02.019Z,-7.91
2018-02-25T00:24:06.033Z,-7.92
2018-02-25T00:24:10.256Z,-7.92
2018-02-25T00:24:14.393Z,-7.91
2018-02-25T00:24:18.311Z,-7.91
2018-02-25T00:24:22.343Z,-7.91
2018-02-25T00:24:26.476Z,-7.92
2018-02-25T00:24:30.618Z,-7.93
2018-02-25T00:24:34.637Z,-7.92
2018-02-25T00:24:38.552Z,-7.92
2018-02-25T00:24:42.591Z,-7.92
2018-02-25T00:24:46.701Z,-7.93
2018-02-25T00:24:50.948Z,-7.92
2018-02-25T00:24:55.382Z,-7.92
2018-02-25T00:24:59.853Z,-7.92
2018-02-25T00:25:04.236Z,-7.91
2018-02-25T00:25:08.373Z,-7.91
2018-02-25T00:25:12.496Z,-7.91
2018-02-25T00:25:16.611Z,-7.93
2018-02-25T00:25:20.853Z,-7.91
2018-02-25T00:25:25.195Z,-7.91
2018-02-25T00:25:29.436Z,-7.91
2018-02-25T00:25:33.457Z,-7.92
2018-02-25T00:25:37.816Z,-7.92
2018-02-25T00:25:41.948Z,-7.92
2018-02-25T00:25:45.974Z,-7.92
2018-02-25T00:25:50.201Z,-7.92
2018-02-25T00:25:54.445Z,-7.92
2018-02-25T00:25:58.670Z,-7.92
2018-02-25T00:26:02.917Z,-7.91
2018-02-25T00:26:06.958Z,-7.91
2018-02-25T00:26:11.203Z,-7.91
2018-02-25T00:26:15.467Z,-7.91
2018-02-25T00:26:19.593Z,-7.9
2018-02-25T00:26:23.615Z,-7.9
2018-02-25T00:26:27.745Z,-7.9
2018-02-25T00:26:31.977Z,-7.91
2018-02-25T00:26:35.895Z,-7.9
2018-02-25T00:26:40.273Z,-7.9
2018-02-25T00:26:44.612Z,-7.9
2018-02-25T00:26:48.737Z,-7.9
2018-02-25T00:26:52.861Z,-7.89
2018-02-25T00:26:56.987Z,-7.9
2018-02-25T00:27:01.231Z,-7.9
2018-02-25T00:27:05.367Z,-7.9
2018-02-25T00:27:09.500Z,-7.89
2018-02-25T00:27:13.831Z,-7.9
2018-02-25T00:27:17.864Z,-7.9
2018-02-25T00:27:22.220Z,-7.9
2018-02-25T00:27:26.472Z,-7.9
2018-02-25T00:27:30.592Z,-7.89
2018-02-25T00:27:34.817Z,-7.9
2018-02-25T00:27:39.077Z,-7.9
2018-02-25T00:27:43.205Z,-7.89
2018-02-25T00:27:47.236Z,-7.91
2018-02-25T00:27:51.575Z,-7.9
2018-02-25T00:27:55.715Z,-7.91
2018-02-25T00:27:59.952Z,-7.9
2018-02-25T00:28:04.363Z,-7.91
2018-02-25T00:28:08.494Z,-7.91
2018-02-25T00:28:12.740Z,-7.9
2018-02-25T00:28:16.864Z,-7.9
2018-02-25T00:28:20.886Z,-7.9
2018-02-25T00:28:25.116Z,-7.91
2018-02-25T00:28:29.467Z,-7.91
2018-02-25T00:28:33.725Z,-7.91
2018-02-25T00:28:37.748Z,-7.91
2018-02-25T00:28:41.992Z,-7.9
2018-02-25T00:28:45.923Z,-7.9
2018-02-25T00:28:50.068Z,-7.9
2018-02-25T00:28:54.187Z,-7.91
2018-02-25T00:28:58.448Z,-7.91
2018-02-25T00:29:02.862Z,-7.9
2018-02-25T00:29:06.985Z,-7.92
2018-02-25T00:29:11.267Z,-7.92
2018-02-25T00:29:15.397Z,-7.9
2018-02-25T00:29:19.524Z,-7.91
2018-02-25T00:29:23.538Z,-7.92
2018-02-25T00:29:27.568Z,-7.92
2018-02-25T00:29:31.804Z,-7.91
2018-02-25T00:29:36.056Z,-7.92
2018-02-25T00:29:40.302Z,-7.91
2018-02-25T00:29:44.557Z,-7.92
2018-02-25T00:29:48.806Z,-7.91
2018-02-25T00:29:53.155Z,-7.91
2018-02-25T00:29:57.190Z,-7.91
2018-02-25T00:30:01.332Z,-7.91
2018-02-25T00:30:05.566Z,-7.91
2018-02-25T00:30:09.586Z,-7.91
2018-02-25T00:30:13.729Z,-7.9
2018-02-25T00:30:18.081Z,-7.91
2018-02-25T00:30:22.328Z,-7.9
2018-02-25T00:30:26.677Z,-7.9
2018-02-25T00:30:31.008Z,-7.9
2018-02-25T00:30:35.021Z,-7.9
2018-02-25T00:30:39.143Z,-7.9
2018-02-25T00:30:43.500Z,-7.9
2018-02-25T00:30:47.400Z,-7.89
2018-02-25T00:30:51.534Z,-7.9
2018-02-25T00:30:55.776Z,-7.9
2018-02-25T00:30:59.913Z,-7.9
2018-02-25T00:31:04.042Z,-7.9
2018-02-25T00:31:08.277Z,-7.9
2018-02-25T00:31:12.533Z,-7.9
2018-02-25T00:31:16.766Z,-7.91
2018-02-25T00:31:20.780Z,-7.89
2018-02-25T00:31:25.128Z,-7.9
2018-02-25T00:31:29.360Z,-7.88
2018-02-25T00:31:33.474Z,-7.9
2018-02-25T00:31:37.701Z,-7.9
2018-02-25T00:31:41.942Z,-7.9
2018-02-25T00:31:46.286Z,-7.9
2018-02-25T00:31:50.201Z,-7.89
2018-02-25T00:31:54.328Z,-7.9
2018-02-25T00:31:58.630Z,-7.89
2018-02-25T00:32:02.820Z,-7.89
2018-02-25T00:32:06.945Z,-7.89
2018-02-25T00:32:11.065Z,-7.89
2018-02-25T00:32:15.089Z,-7.9
2018-02-25T00:32:19.112Z,-7.9
2018-02-25T00:32:23.468Z,-7.89
2018-02-25T00:32:27.465Z,-7.89
2018-02-25T00:32:31.665Z,-7.9
2018-02-25T00:32:35.900Z,-7.9
2018-02-25T00:32:40.122Z,-7.91
2018-02-25T00:32:44.247Z,-7.9
2018-02-25T00:32:48.486Z,-7.91
2018-02-25T00:32:52.505Z,-7.91
2018-02-25T00:32:56.751Z,-7.91
2018-02-25T00:33:00.770Z,-7.91
2018-02-25T00:33:04.735Z,-7.9
2018-02-25T00:33:08.769Z,-7.91
2018-02-25T00:33:12.900Z,-7.9
2018-02-25T00:33:16.916Z,-7.9
2018-02-25T00:33:21.123Z,-7.91
2018-02-25T00:33:25.361Z,-7.91
2018-02-25T00:33:29.713Z,-7.9
2018-02-25T00:33:33.950Z,-7.92
2018-02-25T00:33:37.973Z,-7.91
2018-02-25T00:33:42.091Z,-7.91
2018-02-25T00:33:46.323Z,-7.91
2018-02-25T00:33:50.465Z,-7.91
2018-02-25T00:33:54.371Z,-7.91
2018-02-25T00:33:58.502Z,-7.92
2018-02-25T00:34:02.757Z,-7.92
2018-02-25T00:34:07.001Z,-7.91
2018-02-25T00:34:11.236Z,-7.91
2018-02-25T00:34:15.261Z,-7.92
2018-02-25T00:34:19.505Z,-7.91
2018-02-25T00:34:23.622Z,-7.91
2018-02-25T00:34:27.642Z,-7.92
2018-02-25T00:34:31.663Z,-7.92
2018-02-25T00:34:35.788Z,-7.92
2018-02-25T00:34:39.798Z,-7.92
2018-02-25T00:34:43.944Z,-7.91
2018-02-25T00:34:48.070Z,-7.92
2018-02-25T00:34:52.306Z,-7.92
2018-02-25T00:34:56.435Z,-7.91
2018-02-25T00:35:00.560Z,-7.91
2018-02-25T00:35:04.575Z,-7.92
2018-02-25T00:35:08.625Z,-7.91
2018-02-25T00:35:12.970Z,-7.92
2018-02-25T00:35:17.273Z,-7.92
2018-02-25T00:35:21.561Z,-7.92
2018-02-25T00:35:25.664Z,-7.93
2018-02-25T00:35:29.798Z,-7.92
2018-02-25T00:35:34.156Z,-7.92
2018-02-25T00:35:38.401Z,-7.92
2018-02-25T00:35:42.626Z,-7.92
2018-02-25T00:35:46.537Z,-7.91
2018-02-25T00:35:50.759Z,-7.92
2018-02-25T00:35:54.990Z,-7.92
2018-02-25T00:35:59.227Z,-7.92
2018-02-25T00:36:03.483Z,-7.92
2018-02-25T00:36:07.512Z,-7.93
2018-02-25T00:36:11.760Z,-7.93
2018-02-25T00:36:16.161Z,-7.93
2018-02-25T00:36:20.313Z,-7.92
2018-02-25T00:36:24.557Z,-7.92
2018-02-25T00:36:28.694Z,-7.92
2018-02-25T00:36:32.930Z,-7.92
2018-02-25T00:36:37.160Z,-7.92
2018-02-25T00:36:41.315Z,-7.93
2018-02-25T00:36:45.557Z,-7.93
2018-02-25T00:36:49.921Z,-7.93
2018-02-25T00:36:54.316Z,-7.94
2018-02-25T00:36:58.345Z,-7.93
2018-02-25T00:37:02.681Z,-7.93
2018-02-25T00:37:07.010Z,-7.94
2018-02-25T00:37:11.312Z,-7.94
2018-02-25T00:37:15.448Z,-7.94
2018-02-25T00:37:19.584Z,-7.93
2018-02-25T00:37:23.715Z,-7.94
2018-02-25T00:37:27.742Z,-7.94
2018-02-25T00:37:31.876Z,-7.93
2018-02-25T00:37:35.988Z,-7.94
2018-02-25T00:37:40.163Z,-7.93
2018-02-25T00:37:44.080Z,-7.93
2018-02-25T00:37:48.202Z,-7.93
2018-02-25T00:37:52.351Z,-7.93
2018-02-25T00:37:56.380Z,-7.92
2018-02-25T00:38:00.515Z,-7.94
2018-02-25T00:38:04.629Z,-7.94
2018-02-25T00:38:08.961Z,-7.93
2018-02-25T00:38:13.206Z,-7.94
2018-02-25T00:38:17.442Z,-7.95
2018-02-25T00:38:21.253Z,-7.94
2018-02-25T00:38:25.476Z,-7.94
2018-02-25T00:38:29.608Z,-7.93
2018-02-25T00:38:33.858Z,-7.94
2018-02-25T00:38:37.879Z,-7.94
2018-02-25T00:38:42.008Z,-7.94
2018-02-25T00:38:45.938Z,-7.93
2018-02-25T00:38:49.952Z,-7.94
2018-02-25T00:38:54.201Z,-7.95
2018-02-25T00:38:58.346Z,-7.94
2018-02-25T00:39:02.633Z,-7.95
2018-02-25T00:39:06.886Z,-7.94
2018-02-25T00:39:10.910Z,-7.95
2018-02-25T00:39:15.132Z,-7.95
2018-02-25T00:39:19.148Z,-7.95
2018-02-25T00:39:23.390Z,-7.96
2018-02-25T00:39:27.293Z,-7.95
2018-02-25T00:39:31.649Z,-7.97
2018-02-25T00:39:35.766Z,-7.96
2018-02-25T00:39:39.677Z,-7.96
2018-02-25T00:39:43.802Z,-7.97
2018-02-25T00:39:47.812Z,-7.96
2018-02-25T00:39:51.954Z,-7.96
2018-02-25T00:39:56.206Z,-7.96
2018-02-25T00:40:00.129Z,-7.97
2018-02-25T00:40:04.368Z,-7.97
2018-02-25T00:40:08.632Z,-7.97
2018-02-25T00:40:12.859Z,-7.97
2018-02-25T00:40:17.201Z,-7.98
2018-02-25T00:40:21.021Z,-7.97
2018-02-25T00:40:24.834Z,-7.97
2018-02-25T00:40:29.177Z,-7.98
2018-02-25T00:40:33.187Z,-7.98
2018-02-25T00:40:37.324Z,-7.98
2018-02-25T00:40:41.152Z,-7.98
2018-02-25T00:40:45.386Z,-7.98
2018-02-25T00:40:49.418Z,-7.98
2018-02-25T00:40:53.452Z,-7.97
2018-02-25T00:40:57.581Z,-7.98
2018-02-25T00:41:01.741Z,-7.99
2018-02-25T00:41:05.993Z,-7.98
2018-02-25T00:41:10.218Z,-7.98
2018-02-25T00:41:14.338Z,-7.99
2018-02-25T00:41:18.574Z,-7.98
2018-02-25T00:41:22.723Z,-7.98
2018-02-25T00:41:26.640Z,-7.98
2018-02-25T00:41:30.758Z,-7.98
2018-02-25T00:41:34.997Z,-7.98
2018-02-25T00:41:39.021Z,-7.98
2018-02-25T00:41:43.372Z,-7.98
2018-02-25T00:41:47.727Z,-7.99
2018-02-25T00:41:51.970Z,-7.97
2018-02-25T00:41:56.001Z,-7.97
2018-02-25T00:42:00.017Z,-7.98
2018-02-25T00:42:04.453Z,-7.99
2018-02-25T00:42:08.581Z,-7.98
2018-02-25T00:42:12.807Z,-7.98
2018-02-25T00:42:17.044Z,-7.99
2018-02-25T00:42:21.297Z,-7.99
2018-02-25T00:42:25.538Z,-7.98
2018-02-25T00:42:29.659Z,-7.99
2018-02-25T00:42:33.988Z,-7.98
2018-02-25T00:42:38.128Z,-7.99
2018-02-25T00:42:42.361Z,-7.99
2018-02-25T00:42:46.498Z,-7.99
2018-02-25T00:42:50.619Z,-7.99
2018-02-25T00:42:54.963Z,-7.99
2018-02-25T00:42:59.093Z,-7.98
2018-02-25T00:43:03.453Z,-7.99
2018-02-25T00:43:07.594Z,-7.98
2018-02-25T00:43:11.854Z,-8
2018-02-25T00:43:16.032Z,-7.99
2018-02-25T00:43:20.053Z,-7.98
2018-02-25T00:43:24.401Z,-7.99
2018-02-25T00:43:28.576Z,-7.99
2018-02-25T00:43:32.817Z,-7.99
2018-02-25T00:43:36.970Z,-7.98
2018-02-25T00:43:41.308Z,-8
2018-02-25T00:43:45.552Z,-7.99
2018-02-25T00:43:49.576Z,-7.98
2018-02-25T00:43:53.610Z,-7.99
2018-02-25T00:43:57.952Z,-7.98
2018-02-25T00:44:02.191Z,-7.99
2018-02-25T00:44:06.226Z,-7.99
2018-02-25T00:44:10.476Z,-7.99
2018-02-25T00:44:14.503Z,-7.99
2018-02-25T00:44:18.624Z,-7.99
2018-02-25T00:44:22.545Z,-7.98
2018-02-25T00:44:26.568Z,-7.99
2018-02-25T00:44:30.805Z,-7.99
2018-02-25T00:44:35.157Z,-7.99
2018-02-25T00:44:39.195Z,-7.99
2018-02-25T00:44:43.311Z,-7.99
2018-02-25T00:44:47.350Z,-7.99
2018-02-25T00:44:51.379Z,-7.99
2018-02-25T00:44:55.625Z,-7.99
2018-02-25T00:44:59.765Z,-7.99
2018-02-25T00:45:03.987Z,-8
2018-02-25T00:45:08.374Z,-7.99
2018-02-25T00:45:12.404Z,-8
2018-02-25T00:45:16.440Z,-8
2018-02-25T00:45:20.687Z,-8
2018-02-25T00:45:24.602Z,-8
2018-02-25T00:45:28.535Z,-7.99
2018-02-25T00:45:32.564Z,-8.01
2018-02-25T00:45:36.685Z,-8.01
2018-02-25T00:45:40.909Z,-8
2018-02-25T00:45:45.254Z,-8
2018-02-25T00:45:49.267Z,-8
2018-02-25T00:45:53.602Z,-8
2018-02-25T00:45:57.828Z,-8
2018-02-25T00:46:01.954Z,-8
2018-02-25T00:46:05.885Z,-8.01
2018-02-25T00:46:10.133Z,-8.01
2018-02-25T00:46:14.154Z,-8.01
2018-02-25T00:46:18.168Z,-8.01
2018-02-25T00:46:22.186Z,-8.01
2018-02-25T00:46:26.413Z,-8.01
2018-02-25T00:46:30.652Z,-8.01
2018-02-25T00:46:34.802Z,-8
2018-02-25T00:46:39.048Z,-8
2018-02-25T00:46:43.186Z,-8.01
2018-02-25T00:46:47.329Z,-8
2018-02-25T00:46:51.461Z,-8
2018-02-25T00:46:55.371Z,-8
2018-02-25T00:46:59.288Z,-8
2018-02-25T00:47:03.512Z,-8.01
2018-02-25T00:47:07.659Z,-8
2018-02-25T00:47:12.063Z,-8.01
2018-02-25T00:47:16.408Z,-8.01
2018-02-25T00:47:20.650Z,-8.01
2018-02-25T00:47:24.880Z,-8.01
2018-02-25T00:47:28.905Z,-8.01
2018-02-25T00:47:32.962Z,-8.01
2018-02-25T00:47:37.204Z,-8.01
2018-02-25T00:47:41.457Z,-8.01
2018-02-25T00:47:45.379Z,-8
2018-02-25T00:47:49.429Z,-8
2018-02-25T00:47:53.647Z,-8.01
2018-02-25T00:47:57.899Z,-8
2018-02-25T00:48:02.033Z,-7.99
2018-02-25T00:48:06.100Z,-8
2018-02-25T00:48:10.243Z,-7.99
2018-02-25T00:48:14.373Z,-7.99
2018-02-25T00:48:18.621Z,-7.99
2018-02-25T00:48:22.864Z,-8
2018-02-25T00:48:26.873Z,-8
2018-02-25T00:48:31.121Z,-8
2018-02-25T00:48:35.372Z,-7.99
2018-02-25T00:48:39.504Z,-8
2018-02-25T00:48:43.748Z,-8
2018-02-25T00:48:47.543Z,-7.99
2018-02-25T00:48:51.799Z,-8
2018-02-25T00:48:55.703Z,-8.01
2018-02-25T00:48:59.813Z,-8
2018-02-25T00:49:03.948Z,-7.99
2018-02-25T00:49:08.180Z,-8
2018-02-25T00:49:12.532Z,-7.99
2018-02-25T00:49:16.776Z,-8
2018-02-25T00:49:20.907Z,-7.99
2018-02-25T00:49:25.029Z,-7.99
2018-02-25T00:49:29.051Z,-7.98
2018-02-25T00:49:32.972Z,-7.99
2018-02-25T00:49:37.109Z,-7.99
2018-02-25T00:49:41.143Z,-8
2018-02-25T00:49:45.274Z,-7.99
2018-02-25T00:49:49.498Z,-7.99
2018-02-25T00:49:53.613Z,-8
2018-02-25T00:49:57.748Z,-8
2018-02-25T00:50:02.005Z,-8
2018-02-25T00:50:06.243Z,-7.99
2018-02-25T00:50:10.261Z,-7.99
2018-02-25T00:50:14.493Z,-7.99
2018-02-25T00:50:18.506Z,-7.99
2018-02-25T00:50:22.640Z,-7.99
2018-02-25T00:50:26.775Z,-8
2018-02-25T00:50:31.016Z,-8
2018-02-25T00:50:35.025Z,-7.99
2018-02-25T00:50:39.030Z,-8
2018-02-25T00:50:43.147Z,-8
2018-02-25T00:50:47.394Z,-8
2018-02-25T00:50:51.424Z,-8
2018-02-25T00:50:55.813Z,-8
2018-02-25T00:50:59.948Z,-8
2018-02-25T00:51:04.292Z,-8
2018-02-25T00:51:08.518Z,-7.99
2018-02-25T00:51:12.757Z,-8.01
2018-02-25T00:51:17.020Z,-8.01
2018-02-25T00:51:21.255Z,-8.01
2018-02-25T00:51:25.538Z,-8.01
2018-02-25T00:51:29.659Z,-8.01
2018-02-25T00:51:33.672Z,-8.01
2018-02-25T00:51:37.783Z,-8.01
2018-02-25T00:51:42.134Z,-8.01
2018-02-25T00:51:46.490Z,-8.02
2018-02-25T00:51:50.651Z,-8.01
2018-02-25T00:51:54.778Z,-8.01
2018-02-25T00:51:58.913Z,-8.01
2018-02-25T00:52:02.831Z,-8.01
2018-02-25T00:52:07.076Z,-8.02
2018-02-25T00:52:11.228Z,-8.01
2018-02-25T00:52:15.379Z,-8.02
2018-02-25T00:52:19.630Z,-8.02
2018-02-25T00:52:23.761Z,-8.01
2018-02-25T00:52:28.114Z,-8.02
2018-02-25T00:52:32.153Z,-8.01
2018-02-25T00:52:36.176Z,-8.02
2018-02-25T00:52:40.399Z,-8.02
2018-02-25T00:52:44.524Z,-8.03
2018-02-25T00:52:48.543Z,-8.02
2018-02-25T00:52:52.877Z,-8.02
2018-02-25T00:52:57.009Z,-8.02
2018-02-25T00:53:01.369Z,-8.03
2018-02-25T00:53:05.713Z,-8.03
2018-02-25T00:53:09.947Z,-8.03
2018-02-25T00:53:14.199Z,-8.04
2018-02-25T00:53:18.235Z,-8.04
2018-02-25T00:53:22.472Z,-8.04
2018-02-25T00:53:26.496Z,-8.04
2018-02-25T00:53:30.734Z,-8.04
2018-02-25T00:53:34.877Z,-8.04
2018-02-25T00:53:39.136Z,-8.04
2018-02-25T00:53:43.284Z,-8.03
2018-02-25T00:53:47.530Z,-8.04
2018-02-25T00:53:51.768Z,-8.04
2018-02-25T00:53:55.785Z,-8.05
2018-02-25T00:53:59.810Z,-8.05
2018-02-25T00:54:04.152Z,-8.05
2018-02-25T00:54:08.170Z,-8.05
2018-02-25T00:54:12.401Z,-8.05
2018-02-25T00:54:16.438Z,-8.06
2018-02-25T00:54:20.672Z,-8.07
2018-02-25T00:54:24.674Z,-8.05